METAR Data
IDs: Format: Raw Decoded Include TAF

Data at: 1302 UTC 17 Sep 2019

METAR for:PADU (Dutch Harbor/Madsen, AK, US)
Text:PADU 171256Z AUTO 18005KT 10SM CLR 13/08 A2958 RMK AO2 SLP021 T01280078
Temperature: 12.8°C ( 55°F)
Dewpoint: 7.8°C ( 46°F) [RH = 72%]
Pressure (altimeter):29.58 inches Hg (1001.8 mb) [Sea level pressure: 1002.1 mb]
Winds:from the S (180 degrees) at 6 MPH (5 knots; 2.6 m/s)
Visibility:10 or more sm (16+ km)
Ceiling:at least 12,000 feet AGL
Clouds:sky clear below 12,000 feet AGL
QC Flag:automated observation with no human augmentation
Text:PADU 171156Z AUTO 16008KT 10SM CLR 13/08 A2959 RMK AO2 SLP022 T01330078 10178 20133 58009
Temperature: 13.3°C ( 56°F)
Dewpoint: 7.8°C ( 46°F) [RH = 69%]
Pressure (altimeter):29.59 inches Hg (1002.1 mb) [Sea level pressure: 1002.2 mb]
Winds:from the SSE (160 degrees) at 9 MPH (8 knots; 4.1 m/s)
Visibility:10 or more sm (16+ km)
Ceiling:at least 12,000 feet AGL
Clouds:sky clear below 12,000 feet AGL
QC Flag:automated observation with no human augmentation
Text:PADU 171056Z AUTO 00000KT 10SM CLR 14/08 A2960 RMK AO2 SLP026 T01390083
Temperature: 13.9°C ( 57°F)
Dewpoint: 8.3°C ( 47°F) [RH = 69%]
Pressure (altimeter):29.60 inches Hg (1002.5 mb) [Sea level pressure: 1002.6 mb]
Winds:calm
Visibility:10 or more sm (16+ km)
Ceiling:at least 12,000 feet AGL
Clouds:sky clear below 12,000 feet AGL
QC Flag:automated observation with no human augmentation
Text:PADU 170956Z AUTO 15009KT 10SM CLR 14/10 A2960 RMK AO2 SLP028 T01440100
Temperature: 14.4°C ( 58°F)
Dewpoint: 10.0°C ( 50°F) [RH = 75%]
Pressure (altimeter):29.60 inches Hg (1002.5 mb) [Sea level pressure: 1002.8 mb]
Winds:from the SSE (150 degrees) at 10 MPH (9 knots; 4.6 m/s)
Visibility:10 or more sm (16+ km)
Ceiling:at least 12,000 feet AGL
Clouds:sky clear below 12,000 feet AGL
QC Flag:automated observation with no human augmentation
Text:PADU 170903Z AUTO 16009KT 10SM SCT026 BKN035 16/12 A2961 RMK AO2
Temperature: 16.0°C ( 61°F)
Dewpoint: 12.0°C ( 54°F) [RH = 77%]
Pressure (altimeter):29.61 inches Hg (1002.8 mb)
Winds:from the SSE (160 degrees) at 10 MPH (9 knots; 4.6 m/s)
Visibility:10 or more sm (16+ km)
Ceiling:3500 feet AGL
Clouds: scattered clouds at 2600 feet AGL, broken clouds at 3500 feet AGL
QC Flag:automated observation with no human augmentation
Text:PADU 170856Z AUTO 16010KT 10SM BKN026 BKN034 16/12 A2961 RMK AO2 SLP032 T01560117 401780089 58011
Temperature: 15.6°C ( 60°F)
Dewpoint: 11.7°C ( 53°F) [RH = 78%]
Pressure (altimeter):29.61 inches Hg (1002.8 mb) [Sea level pressure: 1003.2 mb]
Winds:from the SSE (160 degrees) at 12 MPH (10 knots; 5.1 m/s)
Visibility:10 or more sm (16+ km)
Ceiling:2600 feet AGL
Clouds: broken clouds at 2600 feet AGL, broken clouds at 3400 feet AGL
QC Flag:automated observation with no human augmentation
Text:PADU 170807Z AUTO 17007KT 10SM BKN028 OVC033 16/12 A2962 RMK AO2
Temperature: 16.0°C ( 61°F)
Dewpoint: 12.0°C ( 54°F) [RH = 77%]
Pressure (altimeter):29.62 inches Hg (1003.1 mb)
Winds:from the S (170 degrees) at 8 MPH (7 knots; 3.6 m/s)
Visibility:10 or more sm (16+ km)
Ceiling:2800 feet AGL
Clouds: broken clouds at 2800 feet AGL, overcast cloud deck at 3300 feet AGL
QC Flag:automated observation with no human augmentation
Text:PADU 170756Z AUTO 15010KT 10SM OVC030 17/12 A2963 RMK AO2 SLP035 T01670122
Temperature: 16.7°C ( 62°F)
Dewpoint: 12.2°C ( 54°F) [RH = 75%]
Pressure (altimeter):29.63 inches Hg (1003.5 mb) [Sea level pressure: 1003.5 mb]
Winds:from the SSE (150 degrees) at 12 MPH (10 knots; 5.1 m/s)
Visibility:10 or more sm (16+ km)
Ceiling:3000 feet AGL
Clouds: overcast cloud deck at 3000 feet AGL
QC Flag:automated observation with no human augmentation
Text:PADU 170732Z AUTO 15011KT 10SM OVC030 17/13 A2963 RMK AO2
Temperature: 17.0°C ( 63°F)
Dewpoint: 13.0°C ( 55°F) [RH = 77%]
Pressure (altimeter):29.63 inches Hg (1003.5 mb)
Winds:from the SSE (150 degrees) at 13 MPH (11 knots; 5.7 m/s)
Visibility:10 or more sm (16+ km)
Ceiling:3000 feet AGL
Clouds: overcast cloud deck at 3000 feet AGL
QC Flag:automated observation with no human augmentation
Text:PADU 170718Z AUTO 15010KT 10SM OVC028 17/13 A2964 RMK AO2
Temperature: 17.0°C ( 63°F)
Dewpoint: 13.0°C ( 55°F) [RH = 77%]
Pressure (altimeter):29.64 inches Hg (1003.8 mb)
Winds:from the SSE (150 degrees) at 12 MPH (10 knots; 5.1 m/s)
Visibility:10 or more sm (16+ km)
Ceiling:2800 feet AGL
Clouds: overcast cloud deck at 2800 feet AGL
QC Flag:automated observation with no human augmentation

TAF for:PADU (Dutch Harbor/Madsen, AK, US) issued at 1140 UTC 17 Sep 2019
Text:PADU 171140Z 1712/1812 00000KT P6SM VCSH SKC WS020/22030KT
Forecast period:1200 to 1500 UTC 17 September 2019
Forecast type:FROM: standard forecast or significant change
Winds:calm
Visibility:6 or more sm (10+ km)
Ceiling:at least 12,000 feet AGL
Clouds:clear skies
Weather:VCSH (showers in vicinity)
Wind Shear:220 degrees at 30 knots at 2000 feet AGL
Text:FM171500 18015G25KT P6SM BKN020 WS020/21039KT
Forecast period:1500 to 1800 UTC 17 September 2019
Forecast type:FROM: standard forecast or significant change
Winds:from the S (180 degrees) at 17 MPH (15 knots; 7.7 m/s) gusting to 29 MPH (25 knots; 12.9 m/s)
Visibility:6 or more sm (10+ km)
Ceiling:2000 feet AGL
Clouds: broken clouds at 2000 feet AGL
Wind Shear:210 degrees at 39 knots at 2000 feet AGL
Text:FM171800 19016G25KT P6SM -SHRA OVC035 WS020/20040KT
Forecast period:1800 UTC 17 September 2019 to 0000 UTC 18 September 2019
Forecast type:FROM: standard forecast or significant change
Winds:from the S (190 degrees) at 18 MPH (16 knots; 8.2 m/s) gusting to 29 MPH (25 knots; 12.9 m/s)
Visibility:6 or more sm (10+ km)
Ceiling:3500 feet AGL
Clouds: overcast cloud deck at 3500 feet AGL
Weather:-SHRA (light rain showers)
Wind Shear:200 degrees at 40 knots at 2000 feet AGL
Text:FM180000 21020G30KT P6SM -SHRA OVC035 WS020/22045KT
Forecast period:0000 to 1200 UTC 18 September 2019
Forecast type:FROM: standard forecast or significant change
Winds:from the SSW (210 degrees) at 23 MPH (20 knots; 10.3 m/s) gusting to 34 MPH (30 knots; 15.4 m/s)
Visibility:6 or more sm (10+ km)
Ceiling:3500 feet AGL
Clouds: overcast cloud deck at 3500 feet AGL
Weather:-SHRA (light rain showers)
Wind Shear:220 degrees at 45 knots at 2000 feet AGL